Time;durP1;ratioP1;P1;durP2;ratioP2;P2;SDS_P1;SDS_P2;PMS_P1;PMS_P2;Temp;Humidity;BMP_temperature;BMP_pressure;BME280_temperature;BME280_humidity;BME280_pressure;Samples;Min_cycle;Max_cycle;Signal;HPM_P1;HPM_P2
2022/03/27 00:02:15;;;;;;;15.23;11.02;;;10.90;52.00;;;;;;6031974;23;20250;-79
2022/03/27 00:04:42;;;;;;;17.83;10.60;;;10.80;51.90;;;;;;6031894;23;20197;-79
2022/03/27 00:07:09;;;;;;;15.23;11.20;;;10.90;52.30;;;;;;6031989;23;20254;-80
2022/03/27 00:09:36;;;;;;;14.55;10.15;;;10.90;52.40;;;;;;6023538;23;20197;-79
2022/03/27 00:12:03;;;;;;;16.25;11.35;;;10.90;52.30;;;;;;6021081;23;20668;-80
2022/03/27 00:14:30;;;;;;;18.27;11.73;;;10.90;52.20;;;;;;6029503;23;20554;-80
2022/03/27 00:16:59;;;;;;;16.98;12.07;;;11.00;52.20;;;;;;6031537;23;20284;-79
2022/03/27 00:19:26;;;;;;;16.58;11.48;;;11.00;52.20;;;;;;6028218;23;20205;-80
2022/03/27 00:21:52;;;;;;;15.65;11.65;;;10.90;51.80;;;;;;6032038;23;20268;-79
2022/03/27 00:24:20;;;;;;;16.52;11.85;;;10.90;52.10;;;;;;6032030;23;20186;-79
2022/03/27 00:26:47;;;;;;;18.00;12.10;;;10.90;52.30;;;;;;6031645;23;20219;-80
2022/03/27 00:29:16;;;;;;;16.02;11.43;;;10.90;52.60;;;;;;6032329;23;20190;-79
2022/03/27 00:31:44;;;;;;;14.25;10.77;;;10.80;52.80;;;;;;6031163;23;20193;-79
2022/03/27 00:34:12;;;;;;;17.40;10.88;;;10.80;52.70;;;;;;6025530;23;20217;-79
2022/03/27 00:36:39;;;;;;;16.00;11.10;;;10.80;52.90;;;;;;6021613;23;20288;-78
2022/03/27 00:39:06;;;;;;;18.85;11.00;;;10.70;53.10;;;;;;6032111;23;20185;-78
2022/03/27 00:41:34;;;;;;;13.32;10.95;;;10.70;53.30;;;;;;6031085;23;20645;-79
2022/03/27 00:44:01;;;;;;;19.58;11.70;;;10.70;53.20;;;;;;6021743;23;20194;-79
2022/03/27 00:46:28;;;;;;;15.55;12.05;;;10.70;53.40;;;;;;6033851;23;20491;-79
2022/03/27 00:48:55;;;;;;;13.82;10.60;;;10.70;54.10;;;;;;6031959;23;20344;-78
2022/03/27 00:51:24;;;;;;;20.65;11.27;;;10.60;54.20;;;;;;6031946;23;20189;-79
2022/03/27 00:53:51;;;;;;;17.83;11.27;;;10.60;54.80;;;;;;6031699;23;20544;-79
2022/03/27 00:56:18;;;;;;;16.95;11.50;;;10.50;55.20;;;;;;6031291;23;20216;-79
2022/03/27 00:58:45;;;;;;;15.60;10.90;;;10.30;55.10;;;;;;6032259;23;20271;-79
2022/03/27 01:01:22;;;;;;;16.67;12.23;;;10.20;55.30;;;;;;6031496;23;20274;-79
2022/03/27 01:03:49;;;;;;;15.10;11.07;;;10.00;55.70;;;;;;6031411;23;20580;-81
2022/03/27 01:06:31;;;;;;;18.50;13.60;;;9.90;56.70;;;;;;6030932;23;20224;-79
2022/03/27 01:11:42;;;;;;;17.27;12.90;;;9.70;56.90;;;;;;6031739;23;20204;-79
2022/03/27 01:14:10;;;;;;;20.38;13.75;;;9.60;57.30;;;;;;6031878;23;20220;-79
2022/03/27 01:16:42;;;;;;;16.98;12.60;;;9.60;57.70;;;;;;6031206;23;20238;-79
2022/03/27 01:19:12;;;;;;;15.90;12.20;;;9.40;57.70;;;;;;6026763;23;20686;-79
2022/03/27 01:21:42;;;;;;;20.42;12.27;;;9.40;58.20;;;;;;6031524;23;20200;-79
2022/03/27 01:24:10;;;;;;;17.20;12.75;;;9.30;58.70;;;;;;6031705;23;20199;-80
2022/03/27 01:26:39;;;;;;;19.40;12.85;;;9.20;58.80;;;;;;6031032;23;20567;-78
2022/03/27 01:29:07;;;;;;;20.40;13.68;;;9.20;59.10;;;;;;6032006;23;20611;-78
2022/03/27 01:31:36;;;;;;;19.35;14.02;;;9.10;59.10;;;;;;6032064;23;20192;-78
2022/03/27 01:34:04;;;;;;;18.60;13.45;;;9.00;59.40;;;;;;6031210;23;20703;-78
2022/03/27 01:36:34;;;;;;;22.98;15.30;;;9.00;59.40;;;;;;6031227;23;20219;-78
2022/03/27 01:39:05;;;;;;;18.92;13.95;;;8.90;59.60;;;;;;6031455;23;20188;-78
2022/03/27 01:41:32;;;;;;;18.42;13.45;;;8.90;60.00;;;;;;6031813;23;20269;-78
2022/03/27 01:43:59;;;;;;;21.92;13.77;;;8.90;60.10;;;;;;6031090;23;20643;-78
2022/03/27 01:46:30;;;;;;;18.65;13.05;;;8.90;60.00;;;;;;6031226;23;20264;-78
2022/03/27 01:48:57;;;;;;;16.48;12.38;;;8.90;60.00;;;;;;6031467;23;20272;-78
2022/03/27 01:51:25;;;;;;;15.40;12.52;;;8.80;60.00;;;;;;6020643;23;20279;-78
2022/03/27 01:53:52;;;;;;;20.90;14.18;;;8.80;60.60;;;;;;6031236;23;20233;-78
2022/03/27 01:56:20;;;;;;;18.10;12.75;;;8.80;61.60;;;;;;6030714;23;20215;-78
2022/03/27 01:58:47;;;;;;;20.90;14.52;;;8.80;61.30;;;;;;6031502;23;20192;-78
2022/03/27 02:01:16;;;;;;;22.20;13.68;;;8.80;61.40;;;;;;6031209;23;20218;-79
2022/03/27 02:03:43;;;;;;;17.10;13.15;;;8.70;61.70;;;;;;6031529;23;20203;-79
2022/03/27 02:06:10;;;;;;;20.50;14.10;;;8.70;62.00;;;;;;6031019;23;20211;-79
2022/03/27 02:08:37;;;;;;;20.33;13.90;;;8.70;62.90;;;;;;6031286;23;20245;-78
2022/03/27 02:11:04;;;;;;;19.27;13.85;;;8.60;63.40;;;;;;6031369;23;20218;-79
2022/03/27 02:13:33;;;;;;;18.65;13.38;;;8.60;63.80;;;;;;6031483;23;20250;-79
2022/03/27 02:16:00;;;;;;;17.90;13.55;;;8.60;64.10;;;;;;6031140;23;20248;-78
2022/03/27 02:18:29;;;;;;;18.95;13.60;;;8.50;64.10;;;;;;6031284;23;20191;-78
2022/03/27 02:20:56;;;;;;;21.77;13.32;;;8.50;64.30;;;;;;6031098;23;20192;-78
2022/03/27 02:23:23;;;;;;;17.15;12.95;;;8.50;64.80;;;;;;6030603;23;20188;-78
2022/03/27 02:25:50;;;;;;;16.70;13.40;;;8.40;65.10;;;;;;6029756;23;20286;-78
2022/03/27 02:28:18;;;;;;;18.17;13.95;;;8.40;65.40;;;;;;6030215;23;20737;-78
2022/03/27 02:30:47;;;;;;;20.13;12.80;;;8.40;65.30;;;;;;6031218;23;20275;-78
2022/03/27 02:33:14;;;;;;;18.08;12.45;;;8.30;65.20;;;;;;6032346;23;20186;-78
2022/03/27 02:35:41;;;;;;;18.85;14.00;;;8.30;65.50;;;;;;6010286;23;20223;-78
2022/03/27 02:38:08;;;;;;;17.85;13.55;;;8.40;66.10;;;;;;6032563;23;20292;-78
2022/03/27 02:40:36;;;;;;;16.65;12.50;;;8.40;66.50;;;;;;6032279;23;20277;-78
2022/03/27 02:43:03;;;;;;;16.27;12.27;;;8.40;66.50;;;;;;6032701;23;20231;-78
2022/03/27 02:45:31;;;;;;;17.00;13.40;;;8.30;66.80;;;;;;6020611;23;20215;-78
2022/03/27 02:48:00;;;;;;;22.02;14.98;;;8.40;67.10;;;;;;6033005;23;20196;-78
2022/03/27 02:50:29;;;;;;;18.05;13.60;;;8.30;67.00;;;;;;6031327;23;20512;-78
2022/03/27 02:52:56;;;;;;;24.00;15.27;;;8.30;67.10;;;;;;6032500;23;20661;-78
2022/03/27 02:55:24;;;;;;;20.80;13.75;;;8.30;67.60;;;;;;6031547;23;20938;-78
2022/03/27 02:57:51;;;;;;;20.00;14.25;;;8.20;68.10;;;;;;6032441;23;20264;-78
2022/03/27 03:00:20;;;;;;;16.17;13.40;;;8.10;68.50;;;;;;6016359;23;20235;-78
2022/03/27 03:02:47;;;;;;;21.23;14.15;;;8.00;69.20;;;;;;6031720;23;20577;-78
2022/03/27 03:05:16;;;;;;;20.50;13.60;;;7.90;69.60;;;;;;6031176;23;20569;-78
2022/03/27 03:07:44;;;;;;;19.55;14.27;;;7.80;69.80;;;;;;6032664;23;20256;-78
2022/03/27 03:10:11;;;;;;;20.85;14.15;;;7.80;70.30;;;;;;6032223;23;20231;-78
2022/03/27 03:12:38;;;;;;;25.25;15.68;;;7.70;70.80;;;;;;6031994;23;20264;-78
2022/03/27 03:15:06;;;;;;;16.95;12.52;;;7.70;71.40;;;;;;6019343;23;20315;-78
2022/03/27 03:17:33;;;;;;;17.70;13.00;;;7.60;71.80;;;;;;6032044;23;20192;-78
2022/03/27 03:20:00;;;;;;;21.25;13.88;;;7.50;72.00;;;;;;6032796;23;20284;-78
2022/03/27 03:22:30;;;;;;;17.30;14.02;;;7.50;72.40;;;;;;6032197;23;20304;-78
2022/03/27 03:24:57;;;;;;;21.85;13.85;;;7.50;72.90;;;;;;6031681;23;20268;-78
2022/03/27 03:27:24;;;;;;;21.17;14.00;;;7.40;73.50;;;;;;6032421;23;20190;-78
2022/03/27 03:29:51;;;;;;;19.33;13.85;;;7.40;73.80;;;;;;6031913;23;20654;-77
2022/03/27 03:32:20;;;;;;;19.50;14.88;;;7.40;74.40;;;;;;6032332;23;20273;-79
2022/03/27 03:34:47;;;;;;;19.17;13.82;;;7.30;74.60;;;;;;6031845;23;20635;-78
2022/03/27 03:37:14;;;;;;;22.08;12.90;;;7.30;75.10;;;;;;6032128;23;20542;-77
2022/03/27 03:39:42;;;;;;;19.60;13.30;;;7.30;75.50;;;;;;6030685;23;20663;-77
2022/03/27 03:42:10;;;;;;;19.67;13.82;;;7.20;75.90;;;;;;6031488;23;20277;-79
2022/03/27 03:44:37;;;;;;;17.80;13.10;;;7.20;76.60;;;;;;6031518;23;20214;-78
2022/03/27 03:47:05;;;;;;;20.50;13.80;;;7.10;77.30;;;;;;6032146;23;20217;-78
2022/03/27 03:49:31;;;;;;;18.00;13.07;;;7.10;78.00;;;;;;6031771;23;20186;-78
2022/03/27 03:51:58;;;;;;;18.95;14.43;;;7.10;79.10;;;;;;6032394;23;20700;-78
2022/03/27 03:54:25;;;;;;;16.25;12.63;;;7.00;79.80;;;;;;6031752;23;20653;-78
2022/03/27 03:56:54;;;;;;;20.00;12.68;;;7.10;80.50;;;;;;6030828;23;20265;-77
2022/03/27 03:59:21;;;;;;;19.75;13.68;;;7.10;81.00;;;;;;6031223;23;20221;-78
2022/03/27 04:01:48;;;;;;;21.35;12.82;;;7.10;81.40;;;;;;6031524;23;20260;-78
2022/03/27 04:04:15;;;;;;;22.17;14.88;;;7.10;81.60;;;;;;6031899;23;20194;-78
2022/03/27 04:06:42;;;;;;;16.67;13.05;;;7.10;81.80;;;;;;6031028;23;20653;-78
2022/03/27 04:09:09;;;;;;;24.05;13.07;;;7.10;82.30;;;;;;6031656;23;20531;-78
2022/03/27 04:11:35;;;;;;;21.25;12.80;;;7.10;82.40;;;;;;6031551;23;20332;-78
2022/03/27 04:14:04;;;;;;;19.25;13.93;;;7.10;82.50;;;;;;6031659;23;20653;-78
2022/03/27 04:16:31;;;;;;;18.20;13.30;;;7.00;82.30;;;;;;6023808;23;20220;-77
2022/03/27 04:18:58;;;;;;;17.88;13.38;;;7.00;83.00;;;;;;6031920;23;20264;-78
2022/03/27 04:21:26;;;;;;;16.42;12.15;;;7.10;83.20;;;;;;6031847;23;20257;-77
2022/03/27 04:23:54;;;;;;;19.45;12.07;;;7.10;82.90;;;;;;6031844;23;20186;-78
2022/03/27 04:26:20;;;;;;;18.73;12.52;;;7.00;82.90;;;;;;6031582;23;20223;-77
2022/03/27 04:28:47;;;;;;;17.50;13.02;;;7.10;83.70;;;;;;6032037;23;20255;-77
2022/03/27 04:31:18;;;;;;;18.58;13.95;;;7.10;84.30;;;;;;6031431;23;20490;-78
2022/03/27 04:33:45;;;;;;;17.70;12.25;;;7.00;85.00;;;;;;6031947;23;20205;-77
2022/03/27 04:36:12;;;;;;;16.80;14.75;;;7.00;85.30;;;;;;6022384;23;20298;-77
2022/03/27 04:38:39;;;;;;;19.73;13.57;;;7.00;85.80;;;;;;6032014;23;20217;-77
2022/03/27 04:41:06;;;;;;;17.58;13.05;;;6.90;86.00;;;;;;6031809;23;20232;-76
2022/03/27 04:43:33;;;;;;;19.35;13.82;;;6.90;86.50;;;;;;6031419;23;20519;-77
2022/03/27 04:46:00;;;;;;;20.63;14.23;;;6.80;86.00;;;;;;6031469;23;20229;-77
2022/03/27 04:48:29;;;;;;;18.42;13.35;;;6.80;85.90;;;;;;6032496;23;20188;-77
2022/03/27 04:50:56;;;;;;;19.55;13.77;;;6.80;86.90;;;;;;6015696;23;20673;-77
2022/03/27 04:53:23;;;;;;;17.50;13.68;;;6.80;87.60;;;;;;6026877;23;20194;-76
2022/03/27 04:55:50;;;;;;;22.67;14.23;;;6.80;88.30;;;;;;6031142;23;20228;-77
2022/03/27 04:58:17;;;;;;;18.30;13.63;;;6.80;89.20;;;;;;6032143;23;20209;-78
2022/03/27 05:00:45;;;;;;;19.90;13.40;;;6.80;89.70;;;;;;6024462;23;20182;-77
2022/03/27 05:03:12;;;;;;;23.20;14.40;;;6.80;90.00;;;;;;6022594;23;20541;-77
2022/03/27 05:05:41;;;;;;;20.90;14.48;;;6.70;89.90;;;;;;6024924;23;20210;-77
2022/03/27 05:08:08;;;;;;;19.95;13.20;;;6.50;89.80;;;;;;6026147;23;20273;-77
2022/03/27 05:10:35;;;;;;;21.27;14.52;;;6.30;90.30;;;;;;6030911;23;20189;-77
2022/03/27 05:13:03;;;;;;;21.13;13.63;;;6.10;91.00;;;;;;6031643;23;20664;-77
2022/03/27 05:15:30;;;;;;;19.20;14.57;;;5.90;91.70;;;;;;6029586;23;20640;-77
2022/03/27 05:17:59;;;;;;;24.15;15.35;;;5.80;92.50;;;;;;6029134;23;20192;-77
2022/03/27 05:20:27;;;;;;;19.30;14.27;;;5.70;93.20;;;;;;6020237;23;20193;-77
2022/03/27 05:22:56;;;;;;;20.00;14.38;;;5.60;93.90;;;;;;6031395;23;20194;-78
2022/03/27 05:25:23;;;;;;;18.65;13.85;;;5.60;94.80;;;;;;6014973;23;20273;-77
2022/03/27 05:27:58;;;;;;;19.00;12.95;;;5.60;95.40;;;;;;6020583;23;20217;-78
2022/03/27 05:30:27;;;;;;;22.42;14.35;;;5.60;96.10;;;;;;6027503;23;20584;-77
2022/03/27 05:32:55;;;;;;;17.48;13.93;;;5.60;96.50;;;;;;6020120;23;20264;-78
2022/03/27 05:35:23;;;;;;;21.38;13.88;;;5.50;96.50;;;;;;6030254;23;20253;-77
2022/03/27 05:37:50;;;;;;;18.33;14.75;;;5.60;96.60;;;;;;6029811;23;20185;-73
2022/03/27 05:40:21;;;;;;;18.23;13.50;;;5.60;97.00;;;;;;6026847;23;20185;-82
2022/03/27 05:42:49;;;;;;;17.52;14.07;;;5.70;97.00;;;;;;6018760;23;20271;-77
2022/03/27 05:45:16;;;;;;;20.17;13.95;;;5.80;97.20;;;;;;6026083;23;20213;-77
2022/03/27 05:47:43;;;;;;;16.92;14.38;;;5.90;97.00;;;;;;6030712;23;20252;-77
2022/03/27 05:50:11;;;;;;;19.77;13.82;;;6.10;97.10;;;;;;6030188;23;20477;-77
2022/03/27 05:52:38;;;;;;;20.77;14.10;;;6.20;97.00;;;;;;6020988;23;20212;-77
2022/03/27 05:55:06;;;;;;;18.80;14.77;;;6.30;97.10;;;;;;6028570;23;20700;-79
2022/03/27 05:57:35;;;;;;;16.65;13.60;;;6.40;97.10;;;;;;6028969;23;20217;-77
2022/03/27 06:00:02;;;;;;;17.83;14.07;;;6.50;97.00;;;;;;6021050;23;20206;-78
2022/03/27 06:02:29;;;;;;;26.63;14.02;;;6.70;97.00;;;;;;6026092;23;20205;-77
2022/03/27 06:04:56;;;;;;;18.25;12.32;;;6.80;96.80;;;;;;6030428;23;20565;-80
2022/03/27 06:07:23;;;;;;;17.25;12.45;;;7.00;96.30;;;;;;6023969;23;20200;-77
2022/03/27 06:09:51;;;;;;;20.98;13.77;;;7.10;95.90;;;;;;6028061;23;20265;-76
2022/03/27 06:12:18;;;;;;;19.55;13.52;;;7.30;95.60;;;;;;6015862;23;20249;-76
2022/03/27 06:14:48;;;;;;;16.95;13.00;;;7.40;95.10;;;;;;6018378;23;20534;-77
2022/03/27 06:17:15;;;;;;;17.73;13.32;;;7.50;94.80;;;;;;6023875;23;20251;-77
2022/03/27 06:19:42;;;;;;;17.95;14.20;;;7.70;94.30;;;;;;6026529;23;20273;-77
2022/03/27 06:22:08;;;;;;;17.80;13.30;;;7.80;93.60;;;;;;6030248;23;20265;-77
2022/03/27 06:24:35;;;;;;;19.73;13.75;;;8.10;92.90;;;;;;6031277;23;20537;-76
2022/03/27 06:27:02;;;;;;;19.95;13.20;;;8.50;92.30;;;;;;6026094;23;20627;-76
2022/03/27 06:29:29;;;;;;;18.75;13.82;;;9.00;91.20;;;;;;6025680;23;20521;-76
2022/03/27 06:31:58;;;;;;;20.42;13.90;;;9.70;89.80;;;;;;6029240;23;20596;-75
2022/03/27 06:34:26;;;;;;;17.27;13.70;;;10.30;84.50;;;;;;6027222;23;20216;-76
2022/03/27 06:36:53;;;;;;;15.98;14.13;;;10.90;81.60;;;;;;6029640;23;20304;-76
2022/03/27 06:39:20;;;;;;;18.70;14.25;;;11.50;78.80;;;;;;6029007;23;20401;-77
2022/03/27 06:41:47;;;;;;;15.90;13.07;;;12.10;76.20;;;;;;6029747;23;20220;-76
2022/03/27 06:44:14;;;;;;;19.38;14.55;;;12.70;73.70;;;;;;6026595;23;20677;-76
2022/03/27 06:46:42;;;;;;;17.95;14.15;;;13.20;71.90;;;;;;6018490;23;20217;-77
2022/03/27 06:49:10;;;;;;;20.02;15.43;;;13.60;69.40;;;;;;6013251;23;20276;-75
2022/03/27 06:51:37;;;;;;;19.10;16.02;;;13.80;68.40;;;;;;6021804;23;20269;-77
2022/03/27 06:54:04;;;;;;;19.15;14.90;;;13.80;69.00;;;;;;6027280;23;20240;-78
2022/03/27 06:56:32;;;;;;;19.30;15.67;;;13.90;67.20;;;;;;6017022;23;20213;-78
2022/03/27 06:58:59;;;;;;;19.00;14.47;;;14.20;67.00;;;;;;6018522;23;20457;-77
2022/03/27 07:04:12;;;;;;;19.03;14.30;;;15.50;63.60;;;;;;6015523;23;20485;-76
2022/03/27 07:06:42;;;;;;;17.43;14.70;;;16.40;60.70;;;;;;6026748;23;20468;-77
2022/03/27 07:09:10;;;;;;;20.30;14.93;;;17.10;58.50;;;;;;6016083;23;20572;-77
2022/03/27 07:11:37;;;;;;;18.10;14.03;;;17.80;56.70;;;;;;6022378;23;20467;-78
2022/03/27 07:14:05;;;;;;;15.40;13.83;;;18.20;55.30;;;;;;6019513;23;20457;-78
2022/03/27 07:16:32;;;;;;;19.30;15.57;;;18.70;54.30;;;;;;6022412;23;20500;-79
2022/03/27 07:19:00;;;;;;;17.07;14.97;;;19.30;53.40;;;;;;6017658;23;20475;-77
2022/03/27 07:21:28;;;;;;;16.90;14.33;;;19.50;52.50;;;;;;6029950;23;20559;-76
2022/03/27 07:23:55;;;;;;;16.37;14.70;;;19.80;51.70;;;;;;6026972;23;20468;-77
2022/03/27 07:26:22;;;;;;;19.97;14.00;;;19.80;51.30;;;;;;6031373;23;20440;-77
2022/03/27 07:28:49;;;;;;;15.90;14.00;;;19.90;50.50;;;;;;6029365;23;20448;-78
2022/03/27 07:31:16;;;;;;;15.30;13.70;;;20.20;50.10;;;;;;6025239;23;20448;-77
2022/03/27 07:33:43;;;;;;;15.23;13.53;;;20.40;49.90;;;;;;6029479;23;20486;-76
2022/03/27 07:36:10;;;;;;;16.60;14.90;;;20.70;49.20;;;;;;6029495;23;20475;-76
2022/03/27 07:38:39;;;;;;;17.47;14.93;;;21.00;49.00;;;;;;6019311;23;20467;-76
2022/03/27 07:41:06;;;;;;;18.43;14.40;;;21.30;48.40;;;;;;6031144;23;20471;-77
2022/03/27 07:43:33;;;;;;;16.57;14.03;;;21.70;47.70;;;;;;6019267;23;20494;-76
2022/03/27 07:46:00;;;;;;;16.60;13.33;;;22.00;47.50;;;;;;6025423;23;20996;-76
2022/03/27 07:48:27;;;;;;;15.53;14.03;;;21.90;47.10;;;;;;6022879;23;20474;-77
2022/03/27 07:50:56;;;;;;;15.07;13.47;;;21.90;47.50;;;;;;6011830;23;20482;-78
2022/03/27 07:53:23;;;;;;;15.53;14.03;;;22.10;47.20;;;;;;6025617;23;20708;-78
2022/03/27 07:55:52;;;;;;;14.97;13.10;;;22.20;46.70;;;;;;6018025;23;20458;-78
2022/03/27 07:58:19;;;;;;;13.63;12.23;;;22.50;46.20;;;;;;6027537;23;20529;-77
2022/03/27 08:00:45;;;;;;;14.70;13.17;;;22.70;45.90;;;;;;6018198;23;20512;-75
2022/03/27 08:03:12;;;;;;;15.43;14.00;;;23.10;45.70;;;;;;6024454;23;20531;-77
2022/03/27 08:05:42;;;;;;;13.23;11.93;;;23.50;45.00;;;;;;6024379;23;20448;-77
2022/03/27 08:08:09;;;;;;;13.60;12.30;;;23.70;44.50;;;;;;6022245;23;21146;-77
2022/03/27 08:10:36;;;;;;;14.83;13.33;;;23.80;44.50;;;;;;6025199;23;20494;-78
2022/03/27 08:13:04;;;;;;;16.40;12.67;;;24.00;44.40;;;;;;6019058;23;20785;-79
2022/03/27 08:15:31;;;;;;;14.33;12.83;;;23.90;44.40;;;;;;6020531;23;20568;-78
2022/03/27 08:17:58;;;;;;;13.10;11.80;;;24.00;44.30;;;;;;6027091;23;20452;-78
2022/03/27 08:20:26;;;;;;;14.20;12.70;;;24.00;44.20;;;;;;6031443;23;20455;-77
2022/03/27 08:22:54;;;;;;;14.40;12.87;;;24.10;44.00;;;;;;6026437;23;21697;-78
2022/03/27 08:28:09;;;;;;;14.50;12.57;;;24.40;43.90;;;;;;6029963;23;20480;-76
2022/03/27 08:30:36;;;;;;;13.43;11.70;;;24.70;42.80;;;;;;6030059;23;20903;-78
2022/03/27 08:33:04;;;;;;;13.33;12.00;;;25.00;42.50;;;;;;6029072;23;20550;-78
2022/03/27 08:35:31;;;;;;;13.57;12.20;;;24.90;42.40;;;;;;6020110;23;20510;-78
2022/03/27 08:37:58;;;;;;;13.50;11.67;;;25.10;42.30;;;;;;6027301;23;20511;-78
2022/03/27 08:40:25;;;;;;;13.53;12.10;;;24.80;42.10;;;;;;6027248;23;20456;-78
2022/03/27 08:42:52;;;;;;;14.57;12.77;;;24.90;42.60;;;;;;6015070;23;20494;-78
2022/03/27 08:45:21;;;;;;;13.80;12.40;;;25.10;42.50;;;;;;6019342;23;20448;-79
2022/03/27 08:47:48;;;;;;;14.03;12.67;;;25.30;42.40;;;;;;6034157;23;20443;-79
2022/03/27 08:50:29;;;;;;;14.00;12.63;;;25.60;42.10;;;;;;6027335;23;20448;-78
2022/03/27 08:52:58;;;;;;;16.00;14.27;;;25.80;41.80;;;;;;6026692;23;20839;-79
2022/03/27 08:55:39;;;;;;;15.63;13.67;;;26.20;41.50;;;;;;6028795;23;20861;-77
2022/03/27 08:58:09;;;;;;;14.73;13.30;;;26.30;41.00;;;;;;6027226;23;20641;-78
2022/03/27 09:00:38;;;;;;;15.53;13.93;;;26.40;41.30;;;;;;6023495;23;20630;-78
2022/03/27 09:03:06;;;;;;;14.40;12.83;;;26.50;40.60;;;;;;6014827;23;20448;-78
2022/03/27 09:05:35;;;;;;;13.73;12.37;;;26.40;40.80;;;;;;6028751;23;20491;-78
2022/03/27 09:08:07;;;;;;;15.03;13.60;;;26.30;41.10;;;;;;6026443;23;20471;-78
2022/03/27 09:10:34;;;;;;;15.43;12.30;;;26.60;40.80;;;;;;6031730;23;20444;-78
2022/03/27 09:13:02;;;;;;;13.70;11.47;;;26.80;40.80;;;;;;6027534;23;20448;-78
2022/03/27 09:15:29;;;;;;;13.07;11.73;;;27.00;39.80;;;;;;6028783;23;20540;-78
2022/03/27 09:18:02;;;;;;;12.33;11.13;;;27.00;40.40;;;;;;6018431;23;20526;-79
2022/03/27 09:20:34;;;;;;;14.10;12.67;;;27.00;39.80;;;;;;6019003;23;20441;-79
2022/03/27 09:23:13;;;;;;;12.30;11.13;;;26.70;40.80;;;;;;6020361;23;20498;-79
2022/03/27 09:25:48;;;;;;;14.50;13.10;;;27.20;40.40;;;;;;6021429;23;20947;-79
2022/03/27 09:28:30;;;;;;;15.67;13.03;;;27.50;39.80;;;;;;6024153;23;20445;-79
2022/03/27 09:30:59;;;;;;;13.60;11.37;;;27.70;39.40;;;;;;6025551;23;20806;-79
2022/03/27 09:33:46;;;;;;;13.67;12.23;;;27.80;39.30;;;;;;6023868;23;20539;-79
2022/03/27 09:36:15;;;;;;;14.90;12.23;;;28.20;39.00;;;;;;6020392;23;20506;-79
2022/03/27 09:39:01;;;;;;;12.43;11.13;;;28.00;38.40;;;;;;6013992;23;20520;-81
2022/03/27 09:41:35;;;;;;;11.97;10.77;;;28.20;38.30;;;;;;6024430;23;20515;-80
2022/03/27 09:44:04;;;;;;;12.77;11.57;;;27.40;38.40;;;;;;6022652;23;20476;-79
2022/03/27 09:46:53;;;;;;;13.47;12.27;;;27.10;39.10;;;;;;6022144;23;20443;-79
2022/03/27 09:49:23;;;;;;;14.70;13.30;;;27.10;39.80;;;;;;6025677;23;20479;-79
2022/03/27 09:51:52;;;;;;;13.97;12.43;;;27.50;39.40;;;;;;6018843;23;20951;-79
2022/03/27 09:54:18;;;;;;;12.30;11.20;;;27.80;38.90;;;;;;6023584;23;20867;-80
2022/03/27 09:56:45;;;;;;;13.30;12.00;;;27.90;39.30;;;;;;6021830;23;20835;-80
2022/03/27 09:59:26;;;;;;;13.30;11.87;;;28.20;39.10;;;;;;6026504;23;20495;-80
2022/03/27 10:01:53;;;;;;;14.53;12.90;;;28.30;38.60;;;;;;6022585;23;20805;-79
2022/03/27 10:04:21;;;;;;;15.17;13.13;;;28.70;38.40;;;;;;6024491;23;20460;-80
2022/03/27 10:06:48;;;;;;;13.07;11.63;;;28.60;37.80;;;;;;6025110;23;21071;-79
2022/03/27 10:09:15;;;;;;;14.07;12.60;;;28.60;38.50;;;;;;6022236;23;20435;-80
2022/03/27 10:11:43;;;;;;;13.77;12.40;;;28.80;38.00;;;;;;6018924;23;20491;-79
2022/03/27 10:14:11;;;;;;;14.93;13.33;;;29.00;38.00;;;;;;6023193;23;20464;-79
2022/03/27 10:16:39;;;;;;;14.20;12.87;;;29.50;37.50;;;;;;6018771;23;20473;-79
2022/03/27 10:19:10;;;;;;;14.07;12.70;;;29.50;37.30;;;;;;6025260;23;20434;-78
2022/03/27 10:21:41;;;;;;;13.67;12.37;;;29.60;36.70;;;;;;6028634;23;20436;-79
2022/03/27 10:24:12;;;;;;;12.03;10.93;;;29.10;37.50;;;;;;6018458;23;20461;-78
2022/03/27 10:26:40;;;;;;;14.63;13.23;;;29.50;37.50;;;;;;6019383;23;20892;-80
2022/03/27 10:29:08;;;;;;;15.47;14.07;;;29.50;36.50;;;;;;6021339;23;20523;-80
2022/03/27 10:31:35;;;;;;;15.07;13.67;;;29.40;36.70;;;;;;6018204;23;20444;-80
2022/03/27 10:34:05;;;;;;;14.67;13.27;;;29.60;36.60;;;;;;6025203;23;20457;-80
2022/03/27 10:36:47;;;;;;;16.00;14.30;;;29.80;36.70;;;;;;6016520;23;20460;-80
2022/03/27 10:39:23;;;;;;;14.97;13.47;;;29.80;36.70;;;;;;6020275;23;20447;-79
2022/03/27 10:42:00;;;;;;;14.73;13.50;;;30.10;36.70;;;;;;6026424;23;20474;-79
2022/03/27 10:44:34;;;;;;;14.73;13.20;;;30.30;36.50;;;;;;6024805;23;20466;-81
2022/03/27 10:47:15;;;;;;;15.03;13.53;;;30.70;36.40;;;;;;6024621;23;20436;-81
2022/03/27 10:49:43;;;;;;;14.80;13.37;;;30.70;35.90;;;;;;6020141;23;20436;-79
2022/03/27 10:52:12;;;;;;;13.80;12.50;;;30.70;36.40;;;;;;6015132;23;20437;-80
2022/03/27 10:54:58;;;;;;;15.90;14.30;;;30.10;37.80;;;;;;6027081;23;20540;-80
2022/03/27 10:57:31;;;;;;;15.27;12.90;;;30.20;36.40;;;;;;6025546;23;20862;-80
2022/03/27 10:59:58;;;;;;;13.47;12.17;;;30.00;36.20;;;;;;6023306;23;20456;-80
2022/03/27 11:02:46;;;;;;;14.77;13.20;;;29.90;36.80;;;;;;6028195;23;20964;-80
2022/03/27 11:05:51;;;;;;;14.43;13.00;;;29.70;36.50;;;;;;6027931;23;20479;-80
2022/03/27 11:08:48;;;;;;;15.17;13.60;;;29.60;36.70;;;;;;6027698;23;20460;-80
2022/03/27 11:11:54;;;;;;;14.73;13.33;;;29.70;36.70;;;;;;6027357;23;20447;-80
2022/03/27 11:14:53;;;;;;;20.10;14.07;;;29.70;36.20;;;;;;6025054;23;20479;-80
2022/03/27 11:17:38;;;;;;;16.37;14.60;;;28.50;37.40;;;;;;6019269;23;20479;-78
2022/03/27 11:20:07;;;;;;;16.17;14.53;;;28.10;38.00;;;;;;6026717;23;20824;-79
2022/03/27 11:22:51;;;;;;;13.73;12.43;;;27.70;38.20;;;;;;6022414;23;20460;-76
2022/03/27 11:25:27;;;;;;;13.60;12.20;;;27.70;40.40;;;;;;6026563;23;20775;-77
2022/03/27 11:27:56;;;;;;;13.63;12.43;;;28.30;38.60;;;;;;6029212;23;20458;-81
2022/03/27 11:30:23;;;;;;;14.47;13.03;;;28.80;37.90;;;;;;6031148;23;20459;-78
2022/03/27 11:33:16;;;;;;;14.33;12.37;;;29.50;37.40;;;;;;6029093;23;20471;-77
2022/03/27 11:35:59;;;;;;;13.60;12.10;;;30.20;36.60;;;;;;6019784;23;20806;-79
2022/03/27 11:38:27;;;;;;;14.37;13.00;;;30.40;36.40;;;;;;6024189;23;21282;-81
2022/03/27 11:40:57;;;;;;;14.87;13.43;;;30.70;35.90;;;;;;6026589;23;20432;-80
2022/03/27 11:43:31;;;;;;;14.10;12.80;;;31.10;35.50;;;;;;6029886;23;20466;-80
2022/03/27 11:46:00;;;;;;;13.70;12.20;;;31.00;34.70;;;;;;6019866;23;20440;-79
2022/03/27 11:48:28;;;;;;;13.97;12.57;;;30.90;35.20;;;;;;6030629;23;20507;-80
2022/03/27 11:50:56;;;;;;;13.37;12.07;;;31.10;35.10;;;;;;6029366;23;20466;-79
2022/03/27 11:53:33;;;;;;;12.77;11.67;;;31.10;34.90;;;;;;6029744;23;20471;-80
2022/03/27 11:56:12;;;;;;;13.73;12.40;;;31.30;34.90;;;;;;6021643;23;20542;-80
2022/03/27 11:58:40;;;;;;;15.63;13.17;;;31.20;34.70;;;;;;6025671;23;20460;-79
2022/03/27 12:01:09;;;;;;;11.40;10.40;;;31.20;34.50;;;;;;6028166;23;20573;-80
2022/03/27 12:03:37;;;;;;;11.37;10.27;;;30.10;33.20;;;;;;6017835;23;20481;-80
2022/03/27 12:06:06;;;;;;;11.33;10.13;;;29.70;33.50;;;;;;6030296;23;21036;-80
2022/03/27 12:08:35;;;;;;;12.80;11.13;;;29.70;33.70;;;;;;6027516;23;20452;-80
2022/03/27 12:11:06;;;;;;;12.03;10.93;;;29.90;33.80;;;;;;6030758;23;20479;-81
2022/03/27 12:13:39;;;;;;;11.93;10.70;;;30.20;33.90;;;;;;6028527;23;20543;-81
2022/03/27 12:16:07;;;;;;;12.43;11.23;;;30.70;33.50;;;;;;6028527;23;20943;-81
2022/03/27 12:18:38;;;;;;;11.00;10.00;;;31.10;32.70;;;;;;6028825;23;20884;-81
2022/03/27 12:21:06;;;;;;;11.03;9.83;;;31.60;32.30;;;;;;6022034;23;20523;-80
2022/03/27 12:23:35;;;;;;;11.03;9.80;;;32.00;32.70;;;;;;6027371;23;20469;-80
2022/03/27 12:29:40;;;;;;;12.47;9.90;;;32.60;31.50;;;;;;6033803;23;20448;-81
2022/03/27 12:31:57;;;;;;;12.83;10.20;;;32.10;31.60;;;;;;6031741;23;20511;-81
2022/03/27 12:34:25;;;;;;;14.53;10.83;;;31.10;31.30;;;;;;6031586;23;20468;-79
2022/03/27 12:37:14;;;;;;;10.23;9.20;;;30.30;31.50;;;;;;6031620;23;20475;-80
2022/03/27 12:39:57;;;;;;;9.07;8.27;;;29.90;33.00;;;;;;6030621;23;20476;-79
2022/03/27 12:42:32;;;;;;;10.50;8.63;;;29.90;31.90;;;;;;6024711;23;20436;-79
2022/03/27 12:45:05;;;;;;;10.03;9.00;;;29.80;32.70;;;;;;6018673;23;20934;-79
2022/03/27 12:47:33;;;;;;;11.13;9.63;;;30.10;31.80;;;;;;6014180;23;20491;-80
2022/03/27 12:50:00;;;;;;;8.90;8.00;;;30.20;32.80;;;;;;6023446;23;20472;-79
2022/03/27 12:52:27;;;;;;;11.20;8.90;;;30.40;32.40;;;;;;6027290;23;20522;-80
2022/03/27 12:54:56;;;;;;;9.50;8.60;;;30.70;32.10;;;;;;6015398;23;20467;-79